地図

経路データ

SID SEASON NUMBER BASIN SUBBASIN NAME ISO_TIME NATURE LAT LON WMO_WIND WMO_PRES WMO_AGENCY TRACK_TYPE DIST2LAND LANDFALL IFLAG USA_AGENCY USA_ATCF_ID USA_LAT USA_LON USA_RECORD USA_STATUS USA_WIND USA_PRES USA_SSHS USA_R34_NE USA_R34_SE USA_R34_SW USA_R34_NW USA_R50_NE USA_R50_SE USA_R50_SW USA_R50_NW USA_R64_NE USA_R64_SE USA_R64_SW USA_R64_NW USA_POCI USA_ROCI USA_RMW USA_EYE TOKYO_LAT TOKYO_LON TOKYO_GRADE TOKYO_WIND TOKYO_PRES TOKYO_R50_DIR TOKYO_R50_LONG TOKYO_R50_SHORT TOKYO_R30_DIR TOKYO_R30_LONG TOKYO_R30_SHORT TOKYO_LAND CMA_LAT CMA_LON CMA_CAT CMA_WIND CMA_PRES HKO_LAT HKO_LON HKO_CAT HKO_WIND HKO_PRES NEWDELHI_LAT NEWDELHI_LON NEWDELHI_GRADE NEWDELHI_WIND NEWDELHI_PRES NEWDELHI_CI NEWDELHI_DP NEWDELHI_POCI REUNION_LAT REUNION_LON REUNION_TYPE REUNION_WIND REUNION_PRES REUNION_TNUM REUNION_CI REUNION_RMW REUNION_R34_NE REUNION_R34_SE REUNION_R34_SW REUNION_R34_NW REUNION_R50_NE REUNION_R50_SE REUNION_R50_SW REUNION_R50_NW REUNION_R64_NE REUNION_R64_SE REUNION_R64_SW REUNION_R64_NW BOM_LAT BOM_LON BOM_TYPE BOM_WIND BOM_PRES BOM_TNUM BOM_CI BOM_RMW BOM_R34_NE BOM_R34_SE BOM_R34_SW BOM_R34_NW BOM_R50_NE BOM_R50_SE BOM_R50_SW BOM_R50_NW BOM_R64_NE BOM_R64_SE BOM_R64_SW BOM_R64_NW BOM_ROCI BOM_POCI BOM_EYE BOM_POS_METHOD BOM_PRES_METHOD NADI_LAT NADI_LON NADI_CAT NADI_WIND NADI_PRES WELLINGTON_LAT WELLINGTON_LON WELLINGTON_WIND WELLINGTON_PRES DS824_LAT DS824_LON DS824_STAGE DS824_WIND DS824_PRES TD9636_LAT TD9636_LON TD9636_STAGE TD9636_WIND TD9636_PRES TD9635_LAT TD9635_LON TD9635_WIND TD9635_PRES TD9635_ROCI NEUMANN_LAT NEUMANN_LON NEUMANN_CLASS NEUMANN_WIND NEUMANN_PRES MLC_LAT MLC_LON MLC_CLASS MLC_WIND MLC_PRES USA_GUST BOM_GUST BOM_GUST_PER REUNION_GUST REUNION_GUST_PER USA_SEAHGT USA_SEARAD_NE USA_SEARAD_SE USA_SEARAD_SW USA_SEARAD_NW STORM_SPEED STORM_DIR
1932287N11128 1932 63 WP MM NOT_NAMED 1932-10-13 10:00:00 NR 10.7000 127.500 main 188 24 __________O___ -1 10.7000 127.500 7 45 276
1932287N11128 1932 63 WP MM NOT_NAMED 1932-10-13 12:00:00 NR 10.8568 125.970 main 24 0 __________P___ -1 10.8568 125.970 7 44 276
1932287N11128 1932 63 WP MM NOT_NAMED 1932-10-13 15:00:00 NR 11.0687 123.768 main 15 0 __________P___ -1 11.0687 123.768 7 41 275
1932287N11128 1932 63 WP MM NOT_NAMED 1932-10-13 18:00:00 NR 11.2422 121.822 main 32 43 __________P___ -1 11.2422 121.822 7 34 275
1932287N11128 1932 63 WP MM NOT_NAMED 1932-10-13 21:00:00 NR 11.3691 120.291 main 77 45 __________P___ -1 11.3691 120.291 7 28 275
1932287N11128 1932 63 WP MM NOT_NAMED 1932-10-13 22:00:00 NR 11.4000 119.900 main 34 11 __________O___ -1 11.4000 119.900 4 19 275
1932287N11128 1932 63 WP MM NOT_NAMED 1932-10-14 00:00:00 NR 11.4449 119.313 main 24 24 __________P___ -1 11.4449 119.313 4 13 274
1932287N11128 1932 63 WP MM NOT_NAMED 1932-10-14 03:00:00 NR 11.4803 118.824 main 73 73 __________P___ -1 11.4803 118.824 4 7 274
1932287N11128 1932 63 WP MM NOT_NAMED 1932-10-14 06:00:00 NR 11.4927 118.631 main 93 93 __________P___ -1 11.4927 118.631 4 3 274
1932287N11128 1932 63 WP MM NOT_NAMED 1932-10-14 09:00:00 NR 11.4975 118.541 main 103 103 __________P___ -1 11.4975 118.541 4 2 273
1932287N11128 1932 63 WP MM NOT_NAMED 1932-10-14 10:00:00 NR 11.5000 118.500 main 103 103 __________O___ -1 11.5000 118.500 4 5 274
1932287N11128 1932 63 WP MM NOT_NAMED 1932-10-14 12:00:00 NR 11.5164 118.280 main 124 124 __________P___ -1 11.5164 118.280 4 6 274
1932287N11128 1932 63 WP MM NOT_NAMED 1932-10-14 15:00:00 NR 11.5412 117.950 main 166 166 __________P___ -1 11.5412 117.950 4 7 274
1932287N11128 1932 63 WP MM NOT_NAMED 1932-10-14 18:00:00 NR 11.5662 117.606 main 201 201 __________P___ -1 11.5662 117.606 4 7 274
1932287N11128 1932 63 WP MM NOT_NAMED 1932-10-14 21:00:00 NR 11.5915 117.233 main 242 242 __________P___ -1 11.5915 117.233 4 7 274
1932287N11128 1932 63 WP MM NOT_NAMED 1932-10-14 22:00:00 NR 11.6000 117.100 main 250 250 __________O___ -1 11.6000 117.100 4 8 272
1932287N11128 1932 63 WP MM NOT_NAMED 1932-10-15 00:00:00 NR 11.6088 116.809 main 275 275 __________P___ -1 11.6088 116.809 4 9 272
1932287N11128 1932 63 WP MM NOT_NAMED 1932-10-15 03:00:00 NR 11.6219 116.341 main 314 314 __________P___ -1 11.6219 116.341 4 9 272
1932287N11128 1932 63 WP MM NOT_NAMED 1932-10-15 06:00:00 NR 11.6430 115.852 main 339 346 __________P___ -1 11.6430 115.852 4 10 274
1932287N11128 1932 63 WP MM NOT_NAMED 1932-10-15 09:00:00 NR 11.6816 115.361 main 383 391 __________P___ -1 11.6816 115.361 4 10 275
1932287N11128 1932 63 WP MM NOT_NAMED 1932-10-15 10:00:00 NR 11.7000 115.200 main 399 399 __________O___ -1 11.7000 115.200 4 10 278
1932287N11128 1932 63 WP MM NOT_NAMED 1932-10-15 12:00:00 NR 11.7521 114.876 main 430 438 __________P___ -1 11.7521 114.876 4 10 281
1932287N11128 1932 63 WP MM NOT_NAMED 1932-10-15 15:00:00 NR 11.8494 114.396 main 469 477 __________P___ -1 11.8494 114.396 4 9 283
1932287N11128 1932 63 WP MM NOT_NAMED 1932-10-15 18:00:00 NR 11.9584 113.940 main 483 438 __________P___ -1 11.9584 113.940 4 9 284
1932287N11128 1932 63 WP MM NOT_NAMED 1932-10-15 21:00:00 NR 12.0664 113.525 main 438 427 __________P___ -1 12.0664 113.525 4 8 285
1932287N11128 1932 63 WP MM NOT_NAMED 1932-10-15 22:00:00 NR 12.1000 113.400 main 427 404 __________O___ -1 12.1000 113.400 4 7 285
1932287N11128 1932 63 WP MM NOT_NAMED 1932-10-16 00:00:00 NR 12.1527 113.184 main 404 372 __________P___ -1 12.1527 113.184 4 6 285
1932287N11128 1932 63 WP MM NOT_NAMED 1932-10-16 03:00:00 NR 12.2257 112.905 main 372 349 __________P___ -1 12.2257 112.905 4 5 286
1932287N11128 1932 63 WP MM NOT_NAMED 1932-10-16 06:00:00 NR 12.2970 112.652 main 349 315 __________P___ -1 12.2970 112.652 4 5 286
1932287N11128 1932 63 WP MM NOT_NAMED 1932-10-16 09:00:00 NR 12.3727 112.393 main 315 304 __________P___ -1 12.3727 112.393 4 5 287
1932287N11128 1932 63 WP MM NOT_NAMED 1932-10-16 10:00:00 NR 12.4000 112.300 main 304 282 __________O___ -1 12.4000 112.300 4 6 286
1932287N11128 1932 63 WP MM NOT_NAMED 1932-10-16 12:00:00 NR 12.4556 112.097 main 282 250 __________P___ -1 12.4556 112.097 4 6 286
1932287N11128 1932 63 WP MM NOT_NAMED 1932-10-16 15:00:00 NR 12.5451 111.773 main 250 206 __________P___ -1 12.5451 111.773 4 7 286
1932287N11128 1932 63 WP MM NOT_NAMED 1932-10-16 18:00:00 NR 12.6451 111.422 main 206 163 __________P___ -1 12.6451 111.422 4 8 287
1932287N11128 1932 63 WP MM NOT_NAMED 1932-10-16 21:00:00 NR 12.7586 111.037 main 163 152 __________P___ -1 12.7586 111.037 4 8 287
1932287N11128 1932 63 WP MM NOT_NAMED 1932-10-16 22:00:00 NR 12.8000 110.900 main 152 119 __________O___ -1 12.8000 110.900 4 9 288
1932287N11128 1932 63 WP MM NOT_NAMED 1932-10-17 00:00:00 NR 12.8965 110.612 main 119 68 __________P___ -1 12.8965 110.612 4 9 289
1932287N11128 1932 63 WP MM NOT_NAMED 1932-10-17 03:00:00 NR 13.0539 110.148 main 68 39 __________P___ -1 13.0539 110.148 4 10 289
1932287N11128 1932 63 WP MM NOT_NAMED 1932-10-17 06:00:00 NR 13.2128 109.661 main 39 0 __________P___ -1 13.2128 109.661 4 10 288
1932287N11128 1932 63 WP MM NOT_NAMED 1932-10-17 09:00:00 NR 13.3576 109.165 main 0 0 __________P___ -1 13.3576 109.165 4 10 286
1932287N11128 1932 63 WP MM NOT_NAMED 1932-10-17 10:00:00 NR 13.4000 109.000 main 0 0 __________O___ -1 13.4000 109.000 7 10 284
1932287N11128 1932 63 WP MM NOT_NAMED 1932-10-17 12:00:00 NR 13.4739 108.675 main 0 0 __________P___ -1 13.4739 108.675 7 10 282
1932287N11128 1932 63 WP MM NOT_NAMED 1932-10-17 15:00:00 NR 13.5613 108.195 main 0 0 __________P___ -1 13.5613 108.195 7 9 279
1932287N11128 1932 63 WP MM NOT_NAMED 1932-10-17 18:00:00 NR 13.6282 107.723 main 0 0 __________P___ -1 13.6282 107.723 7 9 278
1932287N11128 1932 63 WP MM NOT_NAMED 1932-10-17 21:00:00 NR 13.6830 107.256 main 0 0 __________P___ -1 13.6830 107.256 7 9 277
1932287N11128 1932 63 WP MM NOT_NAMED 1932-10-17 22:00:00 NR 13.7000 107.100 main 0 __________O___ -1 13.7000 107.100 7 9 276

デジタル台風データ・検索

IBTrACS Databaseについて

本データベースは、米国NOAAが公開する1842年以降の世界の熱帯低気圧のベストトラックデータアーカイブInternational Best Track Archive for Climate Stewardship (IBTrACS)を、ウェブで閲覧しやすい形式に変換したものです。

最終更新日:2021-10-21